sensor_id;sensor_type;location;lat;lon;timestamp;temperature;humidity
70986;DHT22;58645;43.068;25.610;2022-12-26T00:01:11;3.10;99.90
70986;DHT22;58645;43.068;25.610;2022-12-26T00:03:37;3.00;99.90
70986;DHT22;58645;43.068;25.610;2022-12-26T00:06:04;3.00;99.90
70986;DHT22;58645;43.068;25.610;2022-12-26T00:08:30;3.00;99.90
70986;DHT22;58645;43.068;25.610;2022-12-26T00:10:55;2.90;99.90
70986;DHT22;58645;43.068;25.610;2022-12-26T00:13:21;2.90;99.90
70986;DHT22;58645;43.068;25.610;2022-12-26T00:15:47;2.90;99.90
70986;DHT22;58645;43.068;25.610;2022-12-26T00:18:13;2.90;99.90
70986;DHT22;58645;43.068;25.610;2022-12-26T00:20:39;2.80;99.90
70986;DHT22;58645;43.068;25.610;2022-12-26T00:23:04;2.80;99.90
70986;DHT22;58645;43.068;25.610;2022-12-26T00:25:32;2.80;99.90
70986;DHT22;58645;43.068;25.610;2022-12-26T00:27:58;2.80;99.90
70986;DHT22;58645;43.068;25.610;2022-12-26T00:30:24;2.80;99.90
70986;DHT22;58645;43.068;25.610;2022-12-26T00:32:50;2.80;99.90
70986;DHT22;58645;43.068;25.610;2022-12-26T00:35:15;2.80;99.90
70986;DHT22;58645;43.068;25.610;2022-12-26T00:37:41;2.70;99.90
70986;DHT22;58645;43.068;25.610;2022-12-26T00:40:07;2.70;99.90
70986;DHT22;58645;43.068;25.610;2022-12-26T00:42:33;2.70;99.90
70986;DHT22;58645;43.068;25.610;2022-12-26T00:44:59;2.70;99.90
70986;DHT22;58645;43.068;25.610;2022-12-26T00:47:24;2.60;99.90
70986;DHT22;58645;43.068;25.610;2022-12-26T00:49:50;2.60;99.90
70986;DHT22;58645;43.068;25.610;2022-12-26T00:52:16;2.60;99.90
70986;DHT22;58645;43.068;25.610;2022-12-26T00:54:41;2.50;99.90
70986;DHT22;58645;43.068;25.610;2022-12-26T00:57:07;2.50;99.90
70986;DHT22;58645;43.068;25.610;2022-12-26T00:59:33;2.40;99.90
70986;DHT22;58645;43.068;25.610;2022-12-26T01:01:58;2.40;99.90
70986;DHT22;58645;43.068;25.610;2022-12-26T01:04:24;2.30;99.90
70986;DHT22;58645;43.068;25.610;2022-12-26T01:06:50;2.30;99.90
70986;DHT22;58645;43.068;25.610;2022-12-26T01:09:16;2.20;99.90
70986;DHT22;58645;43.068;25.610;2022-12-26T01:11:41;2.20;99.90
70986;DHT22;58645;43.068;25.610;2022-12-26T01:14:11;2.10;99.90
70986;DHT22;58645;43.068;25.610;2022-12-26T01:16:38;2.10;99.90
70986;DHT22;58645;43.068;25.610;2022-12-26T01:19:05;2.10;99.90
70986;DHT22;58645;43.068;25.610;2022-12-26T01:21:31;2.10;99.90
70986;DHT22;58645;43.068;25.610;2022-12-26T01:23:56;2.00;99.90
70986;DHT22;58645;43.068;25.610;2022-12-26T01:26:22;2.00;99.90
70986;DHT22;58645;43.068;25.610;2022-12-26T01:28:49;1.90;99.90
70986;DHT22;58645;43.068;25.610;2022-12-26T01:31:15;1.90;99.90
70986;DHT22;58645;43.068;25.610;2022-12-26T01:33:42;1.90;99.90
70986;DHT22;58645;43.068;25.610;2022-12-26T01:36:07;1.90;99.90
70986;DHT22;58645;43.068;25.610;2022-12-26T01:38:33;1.80;99.90
70986;DHT22;58645;43.068;25.610;2022-12-26T01:40:59;1.80;99.90
70986;DHT22;58645;43.068;25.610;2022-12-26T01:46:51;1.70;99.90
70986;DHT22;58645;43.068;25.610;2022-12-26T01:49:40;1.70;99.90
70986;DHT22;58645;43.068;25.610;2022-12-26T01:52:18;1.70;99.90
70986;DHT22;58645;43.068;25.610;2022-12-26T01:54:47;1.60;99.90
70986;DHT22;58645;43.068;25.610;2022-12-26T01:57:21;1.60;99.90
70986;DHT22;58645;43.068;25.610;2022-12-26T01:59:49;1.50;99.90
70986;DHT22;58645;43.068;25.610;2022-12-26T02:02:17;1.50;99.90
70986;DHT22;58645;43.068;25.610;2022-12-26T02:04:48;1.50;99.90
70986;DHT22;58645;43.068;25.610;2022-12-26T02:07:34;1.50;99.90
70986;DHT22;58645;43.068;25.610;2022-12-26T02:10:00;1.50;99.90
70986;DHT22;58645;43.068;25.610;2022-12-26T02:12:32;1.40;99.90
70986;DHT22;58645;43.068;25.610;2022-12-26T02:15:01;1.40;99.90
70986;DHT22;58645;43.068;25.610;2022-12-26T02:17:27;1.50;99.90
70986;DHT22;58645;43.068;25.610;2022-12-26T02:39:45;1.30;99.90
70986;DHT22;58645;43.068;25.610;2022-12-26T02:56:31;1.20;99.90
70986;DHT22;58645;43.068;25.610;2022-12-26T03:02:25;1.20;99.90
70986;DHT22;58645;43.068;25.610;2022-12-26T03:05:17;1.10;99.90
70986;DHT22;58645;43.068;25.610;2022-12-26T03:08:05;1.20;99.90
70986;DHT22;58645;43.068;25.610;2022-12-26T03:10:57;1.20;99.90
70986;DHT22;58645;43.068;25.610;2022-12-26T03:13:43;1.20;99.90
70986;DHT22;58645;43.068;25.610;2022-12-26T03:16:10;1.20;99.90
70986;DHT22;58645;43.068;25.610;2022-12-26T03:18:57;1.20;99.90
70986;DHT22;58645;43.068;25.610;2022-12-26T03:21:26;1.20;99.90
70986;DHT22;58645;43.068;25.610;2022-12-26T03:23:55;1.20;99.90
70986;DHT22;58645;43.068;25.610;2022-12-26T03:26:25;1.10;99.90
70986;DHT22;58645;43.068;25.610;2022-12-26T03:29:20;1.00;99.90
70986;DHT22;58645;43.068;25.610;2022-12-26T03:32:10;1.00;99.90
70986;DHT22;58645;43.068;25.610;2022-12-26T03:34:41;0.90;99.90
70986;DHT22;58645;43.068;25.610;2022-12-26T03:37:31;0.80;99.90
70986;DHT22;58645;43.068;25.610;2022-12-26T03:46:34;0.70;99.90
70986;DHT22;58645;43.068;25.610;2022-12-26T03:49:27;0.70;99.90
70986;DHT22;58645;43.068;25.610;2022-12-26T03:52:19;0.80;99.90
70986;DHT22;58645;43.068;25.610;2022-12-26T03:59:09;0.70;99.90
70986;DHT22;58645;43.068;25.610;2022-12-26T04:01:57;0.70;99.90
70986;DHT22;58645;43.068;25.610;2022-12-26T04:04:44;0.80;99.90
70986;DHT22;58645;43.068;25.610;2022-12-26T04:07:32;0.80;99.90
70986;DHT22;58645;43.068;25.610;2022-12-26T04:10:43;0.90;99.90
70986;DHT22;58645;43.068;25.610;2022-12-26T04:13:52;0.90;99.90
70986;DHT22;58645;43.068;25.610;2022-12-26T04:16:43;0.90;99.90
70986;DHT22;58645;43.068;25.610;2022-12-26T04:19:40;0.80;99.90
70986;DHT22;58645;43.068;25.610;2022-12-26T04:25:19;0.90;99.90
70986;DHT22;58645;43.068;25.610;2022-12-26T04:28:04;0.90;99.90
70986;DHT22;58645;43.068;25.610;2022-12-26T04:30:55;0.80;99.90
70986;DHT22;58645;43.068;25.610;2022-12-26T04:33:49;0.90;99.90
70986;DHT22;58645;43.068;25.610;2022-12-26T04:36:56;0.90;99.90
70986;DHT22;58645;43.068;25.610;2022-12-26T04:39:45;0.90;99.90
70986;DHT22;58645;43.068;25.610;2022-12-26T04:42:31;0.90;99.90
70986;DHT22;58645;43.068;25.610;2022-12-26T04:45:19;0.80;99.90
70986;DHT22;58645;43.068;25.610;2022-12-26T04:47:45;0.70;99.90
70986;DHT22;58645;43.068;25.610;2022-12-26T04:50:30;0.70;99.90
70986;DHT22;58645;43.068;25.610;2022-12-26T04:52:56;0.80;99.90
70986;DHT22;58645;43.068;25.610;2022-12-26T04:55:29;0.80;99.90
70986;DHT22;58645;43.068;25.610;2022-12-26T04:57:56;0.80;99.90
70986;DHT22;58645;43.068;25.610;2022-12-26T05:00:22;0.80;99.90
70986;DHT22;58645;43.068;25.610;2022-12-26T05:02:50;0.80;99.90
70986;DHT22;58645;43.068;25.610;2022-12-26T05:05:45;0.90;99.90
70986;DHT22;58645;43.068;25.610;2022-12-26T05:08:41;0.90;99.90
70986;DHT22;58645;43.068;25.610;2022-12-26T05:11:26;0.90;99.90
70986;DHT22;58645;43.068;25.610;2022-12-26T05:13:53;0.90;99.90
70986;DHT22;58645;43.068;25.610;2022-12-26T05:16:20;0.90;99.90
70986;DHT22;58645;43.068;25.610;2022-12-26T05:19:05;0.90;99.90
70986;DHT22;58645;43.068;25.610;2022-12-26T05:21:49;0.90;99.90
70986;DHT22;58645;43.068;25.610;2022-12-26T05:24:37;0.90;99.90
70986;DHT22;58645;43.068;25.610;2022-12-26T05:27:22;0.90;99.90
70986;DHT22;58645;43.068;25.610;2022-12-26T05:30:08;0.90;99.90
70986;DHT22;58645;43.068;25.610;2022-12-26T05:32:33;0.90;99.90
70986;DHT22;58645;43.068;25.610;2022-12-26T05:35:18;0.90;99.90
70986;DHT22;58645;43.068;25.610;2022-12-26T05:37:44;0.90;99.90
70986;DHT22;58645;43.068;25.610;2022-12-26T05:40:10;0.90;99.90
70986;DHT22;58645;43.068;25.610;2022-12-26T05:42:35;0.80;99.90
70986;DHT22;58645;43.068;25.610;2022-12-26T05:45:01;0.80;99.90
70986;DHT22;58645;43.068;25.610;2022-12-26T05:47:27;0.80;99.90
70986;DHT22;58645;43.068;25.610;2022-12-26T05:49:53;0.80;99.90
70986;DHT22;58645;43.068;25.610;2022-12-26T05:52:18;0.80;99.90
70986;DHT22;58645;43.068;25.610;2022-12-26T05:54:44;0.80;99.90
70986;DHT22;58645;43.068;25.610;2022-12-26T05:57:10;0.80;99.90
70986;DHT22;58645;43.068;25.610;2022-12-26T05:59:35;0.90;99.90
70986;DHT22;58645;43.068;25.610;2022-12-26T06:02:01;0.90;99.90
70986;DHT22;58645;43.068;25.610;2022-12-26T06:04:27;1.00;99.90
70986;DHT22;58645;43.068;25.610;2022-12-26T06:06:54;1.10;99.90
70986;DHT22;58645;43.068;25.610;2022-12-26T06:09:23;1.20;99.90
70986;DHT22;58645;43.068;25.610;2022-12-26T06:11:49;1.30;99.90
70986;DHT22;58645;43.068;25.610;2022-12-26T06:14:15;1.40;99.90
70986;DHT22;58645;43.068;25.610;2022-12-26T06:16:41;1.50;99.90
70986;DHT22;58645;43.068;25.610;2022-12-26T06:19:07;1.90;99.90
70986;DHT22;58645;43.068;25.610;2022-12-26T06:21:33;2.50;99.90
70986;DHT22;58645;43.068;25.610;2022-12-26T06:23:59;3.40;99.90
70986;DHT22;58645;43.068;25.610;2022-12-26T06:26:24;3.60;99.90
70986;DHT22;58645;43.068;25.610;2022-12-26T06:28:50;3.50;99.90
70986;DHT22;58645;43.068;25.610;2022-12-26T06:31:21;3.50;99.90
70986;DHT22;58645;43.068;25.610;2022-12-26T06:33:54;3.80;99.90
70986;DHT22;58645;43.068;25.610;2022-12-26T06:36:22;4.20;99.90
70986;DHT22;58645;43.068;25.610;2022-12-26T06:38:48;4.80;99.90
70986;DHT22;58645;43.068;25.610;2022-12-26T06:41:17;5.50;99.90
70986;DHT22;58645;43.068;25.610;2022-12-26T06:43:43;5.80;99.90
70986;DHT22;58645;43.068;25.610;2022-12-26T06:46:13;6.90;99.90
70986;DHT22;58645;43.068;25.610;2022-12-26T06:48:39;8.00;98.40
70986;DHT22;58645;43.068;25.610;2022-12-26T06:51:06;9.00;90.80
70986;DHT22;58645;43.068;25.610;2022-12-26T06:53:33;10.00;83.60
70986;DHT22;58645;43.068;25.610;2022-12-26T06:56:09;10.70;78.50
70986;DHT22;58645;43.068;25.610;2022-12-26T06:58:35;11.00;72.60
70986;DHT22;58645;43.068;25.610;2022-12-26T07:01:16;11.30;70.80
70986;DHT22;58645;43.068;25.610;2022-12-26T07:03:42;11.80;68.10
70986;DHT22;58645;43.068;25.610;2022-12-26T07:06:28;12.20;67.20
70986;DHT22;58645;43.068;25.610;2022-12-26T07:09:00;12.80;65.30
70986;DHT22;58645;43.068;25.610;2022-12-26T07:11:29;12.80;63.70
70986;DHT22;58645;43.068;25.610;2022-12-26T07:13:55;12.80;63.70
70986;DHT22;58645;43.068;25.610;2022-12-26T07:16:22;12.70;63.50
70986;DHT22;58645;43.068;25.610;2022-12-26T07:18:48;12.60;63.20
70986;DHT22;58645;43.068;25.610;2022-12-26T07:21:14;12.90;63.00
70986;DHT22;58645;43.068;25.610;2022-12-26T07:23:40;13.10;61.50
70986;DHT22;58645;43.068;25.610;2022-12-26T07:26:06;13.20;61.30
70986;DHT22;58645;43.068;25.610;2022-12-26T07:28:32;13.40;61.20
70986;DHT22;58645;43.068;25.610;2022-12-26T07:30:58;13.30;61.40
70986;DHT22;58645;43.068;25.610;2022-12-26T07:33:26;13.10;63.00
70986;DHT22;58645;43.068;25.610;2022-12-26T07:35:52;13.20;62.40
70986;DHT22;58645;43.068;25.610;2022-12-26T07:38:17;13.50;60.70
70986;DHT22;58645;43.068;25.610;2022-12-26T07:40:43;13.90;59.20
70986;DHT22;58645;43.068;25.610;2022-12-26T07:43:09;14.40;58.40
70986;DHT22;58645;43.068;25.610;2022-12-26T07:45:35;14.70;56.70
70986;DHT22;58645;43.068;25.610;2022-12-26T07:48:01;14.80;57.00
70986;DHT22;58645;43.068;25.610;2022-12-26T07:50:27;14.90;55.70
70986;DHT22;58645;43.068;25.610;2022-12-26T07:52:54;14.60;55.60
70986;DHT22;58645;43.068;25.610;2022-12-26T07:55:19;14.30;56.30
70986;DHT22;58645;43.068;25.610;2022-12-26T07:57:49;14.00;57.50
70986;DHT22;58645;43.068;25.610;2022-12-26T08:00:16;13.50;60.10
70986;DHT22;58645;43.068;25.610;2022-12-26T08:02:43;13.00;61.20
70986;DHT22;58645;43.068;25.610;2022-12-26T08:05:09;12.60;62.40
70986;DHT22;58645;43.068;25.610;2022-12-26T08:07:35;12.50;63.10
70986;DHT22;58645;43.068;25.610;2022-12-26T08:10:00;12.50;63.60
70986;DHT22;58645;43.068;25.610;2022-12-26T08:12:26;12.60;63.60
70986;DHT22;58645;43.068;25.610;2022-12-26T08:14:52;12.80;62.70
70986;DHT22;58645;43.068;25.610;2022-12-26T08:17:18;13.20;61.50
70986;DHT22;58645;43.068;25.610;2022-12-26T08:19:43;13.80;59.00
70986;DHT22;58645;43.068;25.610;2022-12-26T08:22:09;14.20;58.40
70986;DHT22;58645;43.068;25.610;2022-12-26T08:24:35;14.40;57.50
70986;DHT22;58645;43.068;25.610;2022-12-26T08:27:01;14.50;58.50
70986;DHT22;58645;43.068;25.610;2022-12-26T08:29:28;14.50;58.90
70986;DHT22;58645;43.068;25.610;2022-12-26T08:31:53;14.70;58.90
70986;DHT22;58645;43.068;25.610;2022-12-26T08:34:19;15.10;58.00
70986;DHT22;58645;43.068;25.610;2022-12-26T08:36:45;15.50;56.30
70986;DHT22;58645;43.068;25.610;2022-12-26T08:39:11;14.90;58.40
70986;DHT22;58645;43.068;25.610;2022-12-26T08:41:37;14.30;60.20
70986;DHT22;58645;43.068;25.610;2022-12-26T08:44:02;13.90;61.30
70986;DHT22;58645;43.068;25.610;2022-12-26T08:46:28;14.00;61.20
70986;DHT22;58645;43.068;25.610;2022-12-26T08:48:54;13.90;61.30
70986;DHT22;58645;43.068;25.610;2022-12-26T08:51:22;13.60;62.60
70986;DHT22;58645;43.068;25.610;2022-12-26T08:53:49;13.40;64.00
70986;DHT22;58645;43.068;25.610;2022-12-26T08:56:17;13.60;64.10
70986;DHT22;58645;43.068;25.610;2022-12-26T08:58:44;14.00;63.30
70986;DHT22;58645;43.068;25.610;2022-12-26T09:01:20;14.40;61.90
70986;DHT22;58645;43.068;25.610;2022-12-26T09:03:46;14.90;60.50
70986;DHT22;58645;43.068;25.610;2022-12-26T09:06:14;15.40;59.10
70986;DHT22;58645;43.068;25.610;2022-12-26T09:08:41;15.90;57.40
70986;DHT22;58645;43.068;25.610;2022-12-26T09:11:08;16.20;56.20
70986;DHT22;58645;43.068;25.610;2022-12-26T09:13:35;16.60;55.10
70986;DHT22;58645;43.068;25.610;2022-12-26T09:18:34;17.20;53.20
70986;DHT22;58645;43.068;25.610;2022-12-26T09:21:04;17.60;52.50
70986;DHT22;58645;43.068;25.610;2022-12-26T09:23:30;18.50;51.10
70986;DHT22;58645;43.068;25.610;2022-12-26T09:26:06;19.40;49.80
70986;DHT22;58645;43.068;25.610;2022-12-26T09:28:32;20.30;47.60
70986;DHT22;58645;43.068;25.610;2022-12-26T09:31:00;21.00;45.60
70986;DHT22;58645;43.068;25.610;2022-12-26T09:33:26;21.80;43.60
70986;DHT22;58645;43.068;25.610;2022-12-26T09:35:51;22.30;42.90
70986;DHT22;58645;43.068;25.610;2022-12-26T09:38:17;22.60;41.90
70986;DHT22;58645;43.068;25.610;2022-12-26T09:46:00;24.20;38.50
70986;DHT22;58645;43.068;25.610;2022-12-26T09:48:43;24.40;38.40
70986;DHT22;58645;43.068;25.610;2022-12-26T09:51:10;24.50;37.60
70986;DHT22;58645;43.068;25.610;2022-12-26T09:53:40;24.70;36.70
70986;DHT22;58645;43.068;25.610;2022-12-26T09:56:13;25.00;36.10
70986;DHT22;58645;43.068;25.610;2022-12-26T09:58:52;25.00;35.80
70986;DHT22;58645;43.068;25.610;2022-12-26T10:01:31;25.20;35.50
70986;DHT22;58645;43.068;25.610;2022-12-26T10:03:59;25.20;35.20
70986;DHT22;58645;43.068;25.610;2022-12-26T10:19:46;25.90;33.80
70986;DHT22;58645;43.068;25.610;2022-12-26T10:22:42;26.30;33.50
70986;DHT22;58645;43.068;25.610;2022-12-26T10:25:18;26.30;33.20
70986;DHT22;58645;43.068;25.610;2022-12-26T10:27:48;26.20;33.10
70986;DHT22;58645;43.068;25.610;2022-12-26T10:30:31;26.30;32.30
70986;DHT22;58645;43.068;25.610;2022-12-26T10:33:03;26.40;33.40
70986;DHT22;58645;43.068;25.610;2022-12-26T10:35:44;26.30;32.80
70986;DHT22;58645;43.068;25.610;2022-12-26T10:40:53;26.10;34.50
70986;DHT22;58645;43.068;25.610;2022-12-26T10:43:26;26.40;32.60
70986;DHT22;58645;43.068;25.610;2022-12-26T10:48:31;27.00;32.40
70986;DHT22;58645;43.068;25.610;2022-12-26T10:50:57;27.00;32.40
70986;DHT22;58645;43.068;25.610;2022-12-26T10:53:23;27.20;31.20
70986;DHT22;58645;43.068;25.610;2022-12-26T10:55:48;27.20;31.00
70986;DHT22;58645;43.068;25.610;2022-12-26T10:58:22;27.20;30.60
70986;DHT22;58645;43.068;25.610;2022-12-26T11:00:49;26.90;30.80
70986;DHT22;58645;43.068;25.610;2022-12-26T11:03:17;26.90;31.90
70986;DHT22;58645;43.068;25.610;2022-12-26T11:05:45;27.00;31.10
70986;DHT22;58645;43.068;25.610;2022-12-26T11:10:42;27.50;30.80
70986;DHT22;58645;43.068;25.610;2022-12-26T11:13:20;27.80;29.40
70986;DHT22;58645;43.068;25.610;2022-12-26T11:15:51;28.10;28.90
70986;DHT22;58645;43.068;25.610;2022-12-26T11:18:28;28.10;29.80
70986;DHT22;58645;43.068;25.610;2022-12-26T11:21:20;28.10;28.30
70986;DHT22;58645;43.068;25.610;2022-12-26T11:23:49;28.50;28.10
70986;DHT22;58645;43.068;25.610;2022-12-26T11:26:25;28.60;27.10
70986;DHT22;58645;43.068;25.610;2022-12-26T11:31:36;29.60;25.90
70986;DHT22;58645;43.068;25.610;2022-12-26T11:34:08;29.50;26.00
70986;DHT22;58645;43.068;25.610;2022-12-26T11:36:34;29.70;24.90
70986;DHT22;58645;43.068;25.610;2022-12-26T11:39:23;29.80;24.40
70986;DHT22;58645;43.068;25.610;2022-12-26T11:41:50;29.40;24.40
70986;DHT22;58645;43.068;25.610;2022-12-26T11:44:27;28.80;24.30
70986;DHT22;58645;43.068;25.610;2022-12-26T11:47:10;28.50;25.10
70986;DHT22;58645;43.068;25.610;2022-12-26T11:49:46;28.70;24.10
70986;DHT22;58645;43.068;25.610;2022-12-26T11:52:41;29.10;23.90
70986;DHT22;58645;43.068;25.610;2022-12-26T12:00:33;24.00;32.80
70986;DHT22;58645;43.068;25.610;2022-12-26T12:03:00;22.80;34.10
70986;DHT22;58645;43.068;25.610;2022-12-26T12:11:06;20.00;40.00
70986;DHT22;58645;43.068;25.610;2022-12-26T12:13:44;19.20;41.50
70986;DHT22;58645;43.068;25.610;2022-12-26T12:19:10;18.10;44.20
70986;DHT22;58645;43.068;25.610;2022-12-26T12:24:37;17.40;46.40
70986;DHT22;58645;43.068;25.610;2022-12-26T12:38:15;16.60;49.40
70986;DHT22;58645;43.068;25.610;2022-12-26T12:46:26;16.20;50.60
70986;DHT22;58645;43.068;25.610;2022-12-26T13:00:02;15.70;51.80
70986;DHT22;58645;43.068;25.610;2022-12-26T13:02:40;15.50;52.50
70986;DHT22;58645;43.068;25.610;2022-12-26T13:07:53;15.30;53.10
70986;DHT22;58645;43.068;25.610;2022-12-26T13:10:28;15.30;53.60
70986;DHT22;58645;43.068;25.610;2022-12-26T13:12:56;15.20;53.60
70986;DHT22;58645;43.068;25.610;2022-12-26T13:15:36;15.10;53.70
70986;DHT22;58645;43.068;25.610;2022-12-26T13:18:17;15.00;54.30
70986;DHT22;58645;43.068;25.610;2022-12-26T13:20:45;14.90;54.60
70986;DHT22;58645;43.068;25.610;2022-12-26T13:23:17;14.90;55.10
70986;DHT22;58645;43.068;25.610;2022-12-26T13:26:27;14.80;55.00
70986;DHT22;58645;43.068;25.610;2022-12-26T13:31:58;14.70;54.70
70986;DHT22;58645;43.068;25.610;2022-12-26T13:34:25;14.60;54.90
70986;DHT22;58645;43.068;25.610;2022-12-26T13:36:53;14.50;54.90
70986;DHT22;58645;43.068;25.610;2022-12-26T13:42:02;14.40;55.00
70986;DHT22;58645;43.068;25.610;2022-12-26T13:50:47;14.10;55.80
70986;DHT22;58645;43.068;25.610;2022-12-26T13:53:38;14.00;55.80
70986;DHT22;58645;43.068;25.610;2022-12-26T13:56:48;13.90;56.00
70986;DHT22;58645;43.068;25.610;2022-12-26T13:59:33;13.80;56.50
70986;DHT22;58645;43.068;25.610;2022-12-26T14:05:11;13.60;57.00
70986;DHT22;58645;43.068;25.610;2022-12-26T14:07:49;13.50;57.00
70986;DHT22;58645;43.068;25.610;2022-12-26T14:18:52;13.20;58.00
70986;DHT22;58645;43.068;25.610;2022-12-26T14:40:35;12.40;60.30
70986;DHT22;58645;43.068;25.610;2022-12-26T14:45:57;12.20;61.00
70986;DHT22;58645;43.068;25.610;2022-12-26T14:53:40;11.90;63.80
70986;DHT22;58645;43.068;25.610;2022-12-26T14:58:45;11.70;64.20
70986;DHT22;58645;43.068;25.610;2022-12-26T15:03:59;11.50;64.90
70986;DHT22;58645;43.068;25.610;2022-12-26T15:34:24;10.40;68.40
70986;DHT22;58645;43.068;25.610;2022-12-26T15:48:03;10.00;70.70
70986;DHT22;58645;43.068;25.610;2022-12-26T16:01:37;9.70;73.10
70986;DHT22;58645;43.068;25.610;2022-12-26T16:04:09;9.60;73.40
70986;DHT22;58645;43.068;25.610;2022-12-26T16:12:29;9.50;74.40
70986;DHT22;58645;43.068;25.610;2022-12-26T16:17:34;9.40;75.20
70986;DHT22;58645;43.068;25.610;2022-12-26T16:23:14;9.20;75.90
70986;DHT22;58645;43.068;25.610;2022-12-26T16:25:49;9.20;76.90
70986;DHT22;58645;43.068;25.610;2022-12-26T16:28:21;9.10;77.10
70986;DHT22;58645;43.068;25.610;2022-12-26T16:30:48;9.00;77.40
70986;DHT22;58645;43.068;25.610;2022-12-26T16:33:14;8.90;77.60
70986;DHT22;58645;43.068;25.610;2022-12-26T16:35:41;8.90;78.50
70986;DHT22;58645;43.068;25.610;2022-12-26T16:38:10;8.80;79.10
70986;DHT22;58645;43.068;25.610;2022-12-26T16:40:44;8.70;79.10
70986;DHT22;58645;43.068;25.610;2022-12-26T16:45:59;8.60;79.20
70986;DHT22;58645;43.068;25.610;2022-12-26T16:48:29;8.60;79.10
70986;DHT22;58645;43.068;25.610;2022-12-26T16:50:59;8.60;79.10
70986;DHT22;58645;43.068;25.610;2022-12-26T16:56:25;8.40;80.40
70986;DHT22;58645;43.068;25.610;2022-12-26T16:59:02;8.40;80.90
70986;DHT22;58645;43.068;25.610;2022-12-26T17:01:29;8.30;81.20
70986;DHT22;58645;43.068;25.610;2022-12-26T17:06:34;8.10;81.70
70986;DHT22;58645;43.068;25.610;2022-12-26T17:09:10;8.10;82.20
70986;DHT22;58645;43.068;25.610;2022-12-26T17:11:44;8.00;82.10
70986;DHT22;58645;43.068;25.610;2022-12-26T17:14:31;8.00;82.20
70986;DHT22;58645;43.068;25.610;2022-12-26T17:17:03;8.00;82.70
70986;DHT22;58645;43.068;25.610;2022-12-26T17:19:31;8.00;82.90
70986;DHT22;58645;43.068;25.610;2022-12-26T17:22:32;8.10;82.90
70986;DHT22;58645;43.068;25.610;2022-12-26T17:27:46;8.20;82.00
70986;DHT22;58645;43.068;25.610;2022-12-26T17:32:51;8.30;82.00
70986;DHT22;58645;43.068;25.610;2022-12-26T17:35:23;8.30;82.40
70986;DHT22;58645;43.068;25.610;2022-12-26T17:38:05;8.10;83.20
70986;DHT22;58645;43.068;25.610;2022-12-26T17:40:36;8.00;83.20
70986;DHT22;58645;43.068;25.610;2022-12-26T17:43:50;7.90;84.50
70986;DHT22;58645;43.068;25.610;2022-12-26T17:45:51;7.80;85.40
70986;DHT22;58645;43.068;25.610;2022-12-26T17:48:17;7.70;85.70
70986;DHT22;58645;43.068;25.610;2022-12-26T17:50:46;7.60;86.70
70986;DHT22;58645;43.068;25.610;2022-12-26T17:53:28;7.60;87.50
70986;DHT22;58645;43.068;25.610;2022-12-26T17:56:18;7.50;88.40
70986;DHT22;58645;43.068;25.610;2022-12-26T17:58:44;7.40;89.70
70986;DHT22;58645;43.068;25.610;2022-12-26T18:01:10;7.30;90.60
70986;DHT22;58645;43.068;25.610;2022-12-26T18:03:36;7.20;91.70
70986;DHT22;58645;43.068;25.610;2022-12-26T18:06:02;7.20;92.40
70986;DHT22;58645;43.068;25.610;2022-12-26T18:08:32;7.10;93.70
70986;DHT22;58645;43.068;25.610;2022-12-26T18:10:59;7.10;93.70
70986;DHT22;58645;43.068;25.610;2022-12-26T18:13:25;7.10;95.40
70986;DHT22;58645;43.068;25.610;2022-12-26T18:15:52;7.00;97.90
70986;DHT22;58645;43.068;25.610;2022-12-26T18:18:29;7.00;99.50
70986;DHT22;58645;43.068;25.610;2022-12-26T18:20:56;6.90;99.70
70986;DHT22;58645;43.068;25.610;2022-12-26T18:23:22;6.90;99.90
70986;DHT22;58645;43.068;25.610;2022-12-26T18:25:48;6.80;99.90
70986;DHT22;58645;43.068;25.610;2022-12-26T18:28:15;6.80;99.90
70986;DHT22;58645;43.068;25.610;2022-12-26T18:30:41;6.70;99.90
70986;DHT22;58645;43.068;25.610;2022-12-26T18:33:09;6.60;99.90
70986;DHT22;58645;43.068;25.610;2022-12-26T18:35:37;6.60;99.90
70986;DHT22;58645;43.068;25.610;2022-12-26T18:38:03;6.50;99.90
70986;DHT22;58645;43.068;25.610;2022-12-26T18:40:37;6.50;99.90
70986;DHT22;58645;43.068;25.610;2022-12-26T18:43:05;6.40;99.90
70986;DHT22;58645;43.068;25.610;2022-12-26T18:45:31;6.40;99.90
70986;DHT22;58645;43.068;25.610;2022-12-26T18:47:58;6.40;99.90
70986;DHT22;58645;43.068;25.610;2022-12-26T18:50:25;6.40;99.90
70986;DHT22;58645;43.068;25.610;2022-12-26T18:52:51;6.40;99.90
70986;DHT22;58645;43.068;25.610;2022-12-26T18:55:16;6.40;99.90
70986;DHT22;58645;43.068;25.610;2022-12-26T18:57:42;6.30;99.90
70986;DHT22;58645;43.068;25.610;2022-12-26T19:00:12;6.30;99.90
70986;DHT22;58645;43.068;25.610;2022-12-26T19:02:39;6.30;99.90
70986;DHT22;58645;43.068;25.610;2022-12-26T19:05:05;6.30;99.90
70986;DHT22;58645;43.068;25.610;2022-12-26T19:07:31;6.20;99.90
70986;DHT22;58645;43.068;25.610;2022-12-26T19:09:56;6.20;99.90
70986;DHT22;58645;43.068;25.610;2022-12-26T19:12:25;6.10;99.90
70986;DHT22;58645;43.068;25.610;2022-12-26T19:14:51;6.10;99.90
70986;DHT22;58645;43.068;25.610;2022-12-26T19:17:16;6.10;99.90
70986;DHT22;58645;43.068;25.610;2022-12-26T19:19:42;6.10;99.90
70986;DHT22;58645;43.068;25.610;2022-12-26T19:22:08;6.00;99.90
70986;DHT22;58645;43.068;25.610;2022-12-26T19:24:34;6.00;99.90
70986;DHT22;58645;43.068;25.610;2022-12-26T19:27:01;6.10;99.90
70986;DHT22;58645;43.068;25.610;2022-12-26T19:29:27;6.00;99.90
70986;DHT22;58645;43.068;25.610;2022-12-26T19:31:53;6.00;99.90
70986;DHT22;58645;43.068;25.610;2022-12-26T19:34:21;5.90;99.90
70986;DHT22;58645;43.068;25.610;2022-12-26T19:36:48;5.80;99.90
70986;DHT22;58645;43.068;25.610;2022-12-26T19:39:14;5.80;99.90
70986;DHT22;58645;43.068;25.610;2022-12-26T19:41:40;5.70;99.90
70986;DHT22;58645;43.068;25.610;2022-12-26T19:44:05;5.70;99.90
70986;DHT22;58645;43.068;25.610;2022-12-26T19:46:31;5.70;99.90
70986;DHT22;58645;43.068;25.610;2022-12-26T19:48:57;5.70;99.90
70986;DHT22;58645;43.068;25.610;2022-12-26T19:51:23;5.60;99.90
70986;DHT22;58645;43.068;25.610;2022-12-26T19:53:48;5.60;99.90
70986;DHT22;58645;43.068;25.610;2022-12-26T19:56:20;5.60;99.90
70986;DHT22;58645;43.068;25.610;2022-12-26T19:58:47;5.50;99.90
70986;DHT22;58645;43.068;25.610;2022-12-26T20:01:19;5.50;99.90
70986;DHT22;58645;43.068;25.610;2022-12-26T20:03:45;5.50;99.90
70986;DHT22;58645;43.068;25.610;2022-12-26T20:06:18;5.40;99.90
70986;DHT22;58645;43.068;25.610;2022-12-26T20:08:45;5.40;99.90
70986;DHT22;58645;43.068;25.610;2022-12-26T20:11:17;5.40;99.90
70986;DHT22;58645;43.068;25.610;2022-12-26T20:13:44;5.30;99.90
70986;DHT22;58645;43.068;25.610;2022-12-26T20:16:12;5.20;99.90